createdAt,value
2022-12-22T00:01:56.071Z,74.48
2022-12-22T00:04:43.443Z,74.50
2022-12-22T00:07:30.673Z,74.66
2022-12-22T00:10:18.132Z,74.74
2022-12-22T00:13:05.251Z,74.58
2022-12-22T00:15:53.681Z,74.72
2022-12-22T00:18:40.896Z,74.57
2022-12-22T00:21:30.156Z,74.70
2022-12-22T00:24:17.192Z,74.66
2022-12-22T00:27:04.502Z,74.60
2022-12-22T00:29:56.662Z,74.76
2022-12-22T00:32:51.741Z,74.94
2022-12-22T00:35:39.996Z,74.87
2022-12-22T00:38:31.603Z,75.00
2022-12-22T00:41:19.246Z,74.74
2022-12-22T00:44:06.371Z,74.98
2022-12-22T00:46:54.800Z,74.97
2022-12-22T00:49:42.856Z,75.16
2022-12-22T00:52:29.877Z,74.78
2022-12-22T00:55:17.215Z,75.07
2022-12-22T00:58:04.330Z,74.91
2022-12-22T01:00:51.554Z,75.03
2022-12-22T01:03:38.935Z,75.05
2022-12-22T01:06:28.243Z,75.08
2022-12-22T01:09:14.999Z,75.09
2022-12-22T01:12:02.075Z,75.38
2022-12-22T01:14:49.324Z,75.20
2022-12-22T01:17:36.181Z,75.42
2022-12-22T01:20:23.545Z,75.19
2022-12-22T01:23:10.549Z,75.52
2022-12-22T01:25:57.222Z,75.15
2022-12-22T01:28:44.186Z,75.59
2022-12-22T01:31:36.208Z,75.28
2022-12-22T01:34:23.242Z,75.45
2022-12-22T01:37:10.928Z,75.54
2022-12-22T01:39:57.817Z,75.60
2022-12-22T01:42:45.307Z,75.55
2022-12-22T01:45:38.084Z,75.53
2022-12-22T01:48:27.324Z,75.60
2022-12-22T01:51:14.657Z,75.84
2022-12-22T01:54:01.870Z,75.76
2022-12-22T01:56:49.099Z,75.59
2022-12-22T01:59:36.603Z,75.59
2022-12-22T02:02:25.949Z,75.80
2022-12-22T02:05:14.038Z,75.81
2022-12-22T02:08:09.178Z,75.65
2022-12-22T02:11:03.439Z,75.53
2022-12-22T02:13:55.675Z,75.44
2022-12-22T02:16:46.266Z,75.84
2022-12-22T02:19:43.951Z,75.46
2022-12-22T02:22:36.492Z,75.68
2022-12-22T02:25:27.020Z,75.57
2022-12-22T02:28:15.030Z,75.71
2022-12-22T02:31:02.276Z,75.92
2022-12-22T02:33:49.268Z,76.04
2022-12-22T02:36:38.538Z,76.12
2022-12-22T02:39:31.092Z,76.17
2022-12-22T02:42:24.881Z,76.16
2022-12-22T02:45:17.481Z,76.16
2022-12-22T02:48:07.046Z,75.89
2022-12-22T02:50:59.431Z,76.01
2022-12-22T02:53:47.887Z,76.13
2022-12-22T02:56:35.594Z,76.17
2022-12-22T02:59:22.535Z,75.93
2022-12-22T03:02:09.649Z,75.95
2022-12-22T03:04:57.085Z,76.29
2022-12-22T03:07:43.993Z,76.47
2022-12-22T03:10:31.316Z,76.32
2022-12-22T03:13:19.210Z,76.44
2022-12-22T03:16:06.228Z,76.06
2022-12-22T03:18:53.189Z,76.39
2022-12-22T03:21:40.278Z,76.37
2022-12-22T03:24:27.742Z,76.43
2022-12-22T03:26:57.145Z,76.49
2022-12-22T03:29:26.548Z,76.59
2022-12-22T03:31:56.023Z,76.34
2022-12-22T03:34:27.352Z,76.46
2022-12-22T03:36:56.718Z,76.55
2022-12-22T03:39:26.131Z,76.27
2022-12-22T03:42:13.121Z,76.19
2022-12-22T03:45:00.250Z,76.38
2022-12-22T03:47:29.665Z,76.45
2022-12-22T03:49:59.070Z,76.58
2022-12-22T03:52:28.457Z,76.45
2022-12-22T03:54:57.705Z,76.47
2022-12-22T03:57:27.165Z,76.28
2022-12-22T03:59:56.909Z,76.23
2022-12-22T04:02:26.869Z,76.36
2022-12-22T04:04:56.397Z,76.26
2022-12-22T04:07:25.724Z,76.36
2022-12-22T04:10:12.790Z,76.48
2022-12-22T04:12:57.291Z,75.95
2022-12-22T04:15:27.776Z,76.13
2022-12-22T04:17:57.232Z,76.35
2022-12-22T04:20:27.997Z,76.16
2022-12-22T04:22:57.871Z,76.39
2022-12-22T04:25:28.418Z,76.07
2022-12-22T04:27:57.930Z,76.25
2022-12-22T04:30:28.230Z,76.44
2022-12-22T04:32:57.634Z,76.30
2022-12-22T04:35:27.059Z,75.87
2022-12-22T04:37:56.353Z,76.14
2022-12-22T04:40:25.771Z,75.89
2022-12-22T04:42:55.164Z,76.34
2022-12-22T04:45:24.657Z,76.23
2022-12-22T04:47:54.074Z,75.93
2022-12-22T04:50:23.464Z,76.05
2022-12-22T04:52:53.078Z,76.22
2022-12-22T04:55:22.376Z,76.58
2022-12-22T04:57:51.791Z,76.59
2022-12-22T05:00:22.103Z,76.80
2022-12-22T05:02:51.612Z,76.61
2022-12-22T05:05:21.118Z,76.55
2022-12-22T05:07:50.619Z,76.57
2022-12-22T05:10:20.238Z,76.31
2022-12-22T05:12:58.479Z,76.34
2022-12-22T05:15:28.838Z,76.47
2022-12-22T05:17:58.893Z,76.46
2022-12-22T05:20:28.601Z,76.26
2022-12-22T05:22:58.214Z,76.11
2022-12-22T05:25:34.453Z,76.56
2022-12-22T05:28:04.820Z,76.60
2022-12-22T05:30:34.231Z,76.30
2022-12-22T05:33:03.714Z,76.45
2022-12-22T05:35:33.019Z,76.55
2022-12-22T05:38:02.420Z,76.53
2022-12-22T05:40:31.741Z,76.42
2022-12-22T05:43:01.444Z,76.39
2022-12-22T05:45:30.854Z,76.74
2022-12-22T05:48:00.183Z,76.55
2022-12-22T05:50:29.813Z,76.53
2022-12-22T05:53:06.744Z,76.56
2022-12-22T05:55:36.253Z,76.52
2022-12-22T05:58:05.513Z,76.73
2022-12-22T06:00:34.822Z,76.45
2022-12-22T06:03:04.321Z,76.49
2022-12-22T06:05:33.805Z,76.23
2022-12-22T06:08:03.050Z,76.37
2022-12-22T06:10:32.325Z,76.44
2022-12-22T06:13:02.296Z,76.40
2022-12-22T06:15:31.678Z,76.59
2022-12-22T06:18:01.695Z,76.50
2022-12-22T06:20:31.095Z,76.02
2022-12-22T06:23:00.541Z,76.37
2022-12-22T06:25:30.119Z,76.16
2022-12-22T06:27:59.539Z,76.19
2022-12-22T06:30:33.182Z,76.05
2022-12-22T06:33:03.887Z,76.07
2022-12-22T06:35:33.271Z,76.10
2022-12-22T06:38:02.614Z,76.11
2022-12-22T06:40:31.970Z,76.16
2022-12-22T06:43:10.884Z,76.22
2022-12-22T06:45:41.409Z,76.55
2022-12-22T06:48:11.624Z,76.19
2022-12-22T06:50:41.033Z,76.24
2022-12-22T06:53:10.560Z,76.32
2022-12-22T06:55:39.915Z,75.92
2022-12-22T06:58:09.241Z,76.16
2022-12-22T07:00:38.659Z,76.07
2022-12-22T07:03:08.216Z,75.87
2022-12-22T07:05:37.888Z,76.09
2022-12-22T07:08:09.122Z,75.94
2022-12-22T07:10:56.659Z,75.81
2022-12-22T07:13:27.571Z,75.94
2022-12-22T07:16:01.063Z,75.59
2022-12-22T07:18:32.652Z,75.79
2022-12-22T07:21:03.181Z,75.90
2022-12-22T07:23:32.804Z,75.96
2022-12-22T07:26:02.432Z,75.88
2022-12-22T07:28:33.295Z,76.18
2022-12-22T07:31:02.926Z,75.88
2022-12-22T07:33:32.773Z,75.77
2022-12-22T07:36:07.309Z,76.00
2022-12-22T07:38:38.154Z,75.98
2022-12-22T07:41:29.207Z,75.83
2022-12-22T07:43:59.480Z,75.86
2022-12-22T07:46:30.056Z,75.96
2022-12-22T07:49:17.438Z,75.91
2022-12-22T07:51:47.140Z,76.06
2022-12-22T07:54:17.179Z,76.15
2022-12-22T07:56:47.229Z,75.93
2022-12-22T07:59:17.203Z,75.90
2022-12-22T08:01:47.015Z,75.87
2022-12-22T08:04:16.641Z,76.17
2022-12-22T08:06:46.338Z,76.15
2022-12-22T08:09:16.784Z,76.39
2022-12-22T08:11:46.166Z,76.48
2022-12-22T08:14:15.624Z,76.23
2022-12-22T08:16:45.040Z,75.82
2022-12-22T08:19:14.598Z,75.61
2022-12-22T08:21:50.362Z,75.09
2022-12-22T08:24:22.213Z,75.22
2022-12-22T08:26:54.062Z,75.21
2022-12-22T08:29:25.169Z,74.81
2022-12-22T08:31:55.265Z,74.99
2022-12-22T08:34:24.825Z,74.83
2022-12-22T08:36:57.098Z,74.82
2022-12-22T08:39:27.600Z,75.51
2022-12-22T08:41:57.033Z,76.24
2022-12-22T08:44:27.647Z,77.09
2022-12-22T08:46:58.324Z,77.54
2022-12-22T08:49:28.329Z,76.86
2022-12-22T08:51:57.928Z,75.74
2022-12-22T08:54:27.431Z,74.48
2022-12-22T08:56:58.779Z,72.93
2022-12-22T08:59:28.293Z,70.87
2022-12-22T09:01:57.841Z,69.12
2022-12-22T09:04:27.427Z,67.93
2022-12-22T09:06:56.911Z,67.21
2022-12-22T09:09:26.622Z,65.57
2022-12-22T09:11:56.148Z,64.15
2022-12-22T09:14:26.163Z,63.46
2022-12-22T09:16:55.798Z,63.14
2022-12-22T09:19:25.679Z,62.91
2022-12-22T09:21:55.817Z,63.26
2022-12-22T09:24:25.404Z,63.74
2022-12-22T09:26:54.928Z,63.82
2022-12-22T09:29:24.623Z,64.08
2022-12-22T09:31:54.149Z,64.26
2022-12-22T09:34:23.739Z,64.49
2022-12-22T09:36:53.252Z,64.92
2022-12-22T09:39:28.616Z,65.08
2022-12-22T09:41:59.367Z,65.50
2022-12-22T09:44:30.990Z,65.83
2022-12-22T09:47:01.847Z,66.11
2022-12-22T09:49:32.048Z,66.52
2022-12-22T09:52:02.617Z,66.54
2022-12-22T09:54:32.182Z,66.74
2022-12-22T09:57:02.611Z,67.20
2022-12-22T09:59:32.832Z,67.33
2022-12-22T10:02:18.172Z,67.25
2022-12-22T10:04:54.266Z,67.57
2022-12-22T10:07:27.587Z,67.79
2022-12-22T10:09:57.791Z,67.96
2022-12-22T10:12:27.399Z,68.08
2022-12-22T10:14:57.047Z,68.10
2022-12-22T10:17:28.352Z,68.28
2022-12-22T10:20:09.539Z,68.44
2022-12-22T10:22:46.859Z,68.54
2022-12-22T10:25:27.702Z,68.54
2022-12-22T10:28:04.270Z,68.92
2022-12-22T10:30:35.620Z,68.87
2022-12-22T10:33:07.498Z,68.83
2022-12-22T10:35:46.315Z,68.89
2022-12-22T10:38:21.235Z,69.12
2022-12-22T10:41:01.903Z,69.36
2022-12-22T10:43:33.261Z,69.25
2022-12-22T10:46:03.563Z,69.65
2022-12-22T10:48:34.562Z,69.74
2022-12-22T10:51:06.184Z,69.79
2022-12-22T10:53:44.599Z,69.61
2022-12-22T10:56:22.202Z,69.84
2022-12-22T10:58:53.224Z,69.97
2022-12-22T11:01:29.732Z,69.81
2022-12-22T11:04:00.313Z,69.79
2022-12-22T11:06:29.853Z,69.82
2022-12-22T11:09:31.218Z,69.73
2022-12-22T11:11:51.929Z,69.68
2022-12-22T11:14:35.854Z,70.02
2022-12-22T11:17:09.310Z,70.32
2022-12-22T11:19:47.765Z,70.65
2022-12-22T11:22:26.283Z,70.66
2022-12-22T11:25:02.245Z,70.62
2022-12-22T11:27:34.523Z,70.75
2022-12-22T11:30:09.569Z,70.52
2022-12-22T11:32:50.111Z,70.30
2022-12-22T11:35:25.914Z,70.40
2022-12-22T11:38:02.749Z,70.79
2022-12-22T11:40:34.313Z,70.52
2022-12-22T11:43:19.172Z,70.34
2022-12-22T11:45:58.155Z,70.38
2022-12-22T11:48:46.141Z,70.72
2022-12-22T11:51:27.350Z,70.68
2022-12-22T11:54:12.037Z,70.77
2022-12-22T11:56:42.059Z,70.38
2022-12-22T11:59:27.480Z,70.33
2022-12-22T12:02:04.757Z,70.54
2022-12-22T12:04:47.788Z,70.59
2022-12-22T12:07:25.956Z,70.66
2022-12-22T12:10:00.130Z,70.72
2022-12-22T12:12:33.522Z,70.66
2022-12-22T12:15:09.569Z,70.68
2022-12-22T12:17:45.843Z,71.04
2022-12-22T12:20:25.194Z,70.77
2022-12-22T12:23:01.443Z,70.69
2022-12-22T12:25:35.268Z,70.30
2022-12-22T12:28:16.743Z,70.42
2022-12-22T12:30:52.399Z,70.43
2022-12-22T12:33:24.370Z,70.54
2022-12-22T12:36:00.211Z,70.65
2022-12-22T12:41:31.893Z,70.56
2022-12-22T12:44:02.326Z,70.50
2022-12-22T12:46:45.415Z,70.55
2022-12-22T12:49:37.583Z,70.54
2022-12-22T12:52:07.703Z,70.75
2022-12-22T12:54:39.371Z,70.87
2022-12-22T12:57:23.718Z,70.90
2022-12-22T12:59:53.973Z,70.93
2022-12-22T13:02:57.117Z,70.33
2022-12-22T13:05:33.172Z,70.25
2022-12-22T13:08:19.498Z,69.98
2022-12-22T13:11:12.763Z,70.04
2022-12-22T13:13:52.557Z,70.00
2022-12-22T13:16:27.508Z,70.16
2022-12-22T13:19:01.459Z,70.44
2022-12-22T13:21:54.873Z,70.54
2022-12-22T13:24:29.258Z,70.51
2022-12-22T13:27:02.747Z,70.77
2022-12-22T13:29:41.690Z,70.87
2022-12-22T13:32:18.335Z,70.94
2022-12-22T13:35:29.113Z,71.02
2022-12-22T13:37:43.174Z,71.37
2022-12-22T13:40:15.553Z,71.48
2022-12-22T13:42:47.021Z,71.70
2022-12-22T13:45:24.276Z,72.00
2022-12-22T13:47:54.195Z,71.78
2022-12-22T13:50:26.065Z,71.85
2022-12-22T13:52:57.817Z,71.74
2022-12-22T13:55:28.555Z,71.77
2022-12-22T13:58:01.439Z,71.84
2022-12-22T14:00:31.215Z,71.98
2022-12-22T14:03:01.070Z,72.27
2022-12-22T14:05:34.461Z,72.06
2022-12-22T14:08:05.508Z,72.13
2022-12-22T14:10:38.909Z,72.29
2022-12-22T14:13:13.239Z,72.27
2022-12-22T14:15:43.047Z,72.39
2022-12-22T14:18:16.114Z,72.45
2022-12-22T14:20:47.891Z,72.53
2022-12-22T14:23:22.132Z,72.65
2022-12-22T14:25:52.696Z,72.83
2022-12-22T14:28:24.399Z,73.01
2022-12-22T14:30:55.195Z,73.03
2022-12-22T14:33:32.591Z,72.92
2022-12-22T14:36:14.751Z,73.18
2022-12-22T14:38:45.561Z,72.87
2022-12-22T14:41:34.118Z,72.88
2022-12-22T14:44:03.858Z,72.97
2022-12-22T14:46:38.904Z,73.11
2022-12-22T14:49:13.607Z,73.10
2022-12-22T14:51:43.741Z,73.30
2022-12-22T14:54:21.551Z,73.51
2022-12-22T14:56:52.363Z,73.38
2022-12-22T14:59:27.238Z,73.44
2022-12-22T15:02:01.547Z,73.35
2022-12-22T15:04:31.535Z,73.18
2022-12-22T15:07:24.112Z,73.22
2022-12-22T15:10:18.430Z,72.93
2022-12-22T15:12:49.066Z,72.90
2022-12-22T15:15:19.427Z,72.94
2022-12-22T15:17:49.875Z,73.02
2022-12-22T15:20:21.923Z,73.12
2022-12-22T15:22:51.802Z,73.05
2022-12-22T15:25:22.985Z,73.15
2022-12-22T15:27:52.893Z,73.19
2022-12-22T15:30:29.872Z,73.13
2022-12-22T15:32:59.591Z,73.06
2022-12-22T15:35:31.667Z,73.05
2022-12-22T15:38:01.719Z,73.30
2022-12-22T15:40:31.189Z,72.91
2022-12-22T15:43:00.691Z,73.05
2022-12-22T15:45:30.914Z,73.06
2022-12-22T15:48:00.648Z,73.23
2022-12-22T15:50:38.804Z,73.21
2022-12-22T15:53:10.168Z,73.28
2022-12-22T15:55:42.912Z,73.29
2022-12-22T15:58:13.495Z,73.34
2022-12-22T16:00:43.123Z,73.17
2022-12-22T16:03:13.472Z,73.35
2022-12-22T16:05:43.348Z,73.28
2022-12-22T16:08:17.959Z,73.27
2022-12-22T16:10:48.315Z,73.27
2022-12-22T16:13:18.324Z,73.24
2022-12-22T16:15:47.908Z,73.19
2022-12-22T16:18:17.666Z,73.22
2022-12-22T16:20:50.190Z,73.24
2022-12-22T16:23:21.379Z,73.44
2022-12-22T16:25:56.914Z,73.47
2022-12-22T16:28:28.776Z,73.44
2022-12-22T16:30:58.546Z,73.39
2022-12-22T16:33:29.175Z,73.52
2022-12-22T16:35:58.690Z,73.59
2022-12-22T16:38:28.239Z,73.37
2022-12-22T16:40:57.748Z,73.35
2022-12-22T16:46:18.723Z,73.36
2022-12-22T16:48:49.914Z,73.35
2022-12-22T16:51:22.332Z,73.32
2022-12-22T16:53:51.820Z,73.41
2022-12-22T16:56:22.526Z,73.60
2022-12-22T16:58:51.991Z,73.63
2022-12-22T17:01:26.283Z,73.29
2022-12-22T17:03:56.537Z,73.40
2022-12-22T17:06:26.163Z,73.52
2022-12-22T17:08:55.901Z,73.37
2022-12-22T17:11:27.663Z,73.29
2022-12-22T17:14:02.800Z,73.35
2022-12-22T17:16:32.364Z,73.35
2022-12-22T17:19:01.913Z,73.39
2022-12-22T17:21:31.422Z,73.32
2022-12-22T17:24:04.425Z,73.37
2022-12-22T17:26:35.050Z,73.35
2022-12-22T17:29:05.470Z,73.18
2022-12-22T17:31:35.052Z,73.27
2022-12-22T17:34:12.245Z,73.31
2022-12-22T17:36:41.794Z,73.23
2022-12-22T17:39:14.167Z,73.05
2022-12-22T17:41:44.278Z,73.32
2022-12-22T17:44:16.474Z,73.31
2022-12-22T17:46:46.004Z,73.38
2022-12-22T17:49:15.911Z,73.32
2022-12-22T17:51:45.541Z,73.30
2022-12-22T17:54:21.655Z,73.27
2022-12-22T17:56:51.751Z,73.18
2022-12-22T17:59:21.565Z,73.39
2022-12-22T18:01:51.250Z,73.41
2022-12-22T18:04:20.983Z,73.69
2022-12-22T18:06:50.500Z,73.78
2022-12-22T18:09:22.871Z,73.49
2022-12-22T18:11:52.810Z,73.61
2022-12-22T18:14:23.331Z,73.66
2022-12-22T18:16:53.130Z,73.46
2022-12-22T18:19:22.739Z,73.49
2022-12-22T18:21:52.563Z,73.30
2022-12-22T18:24:22.161Z,73.51
2022-12-22T18:26:56.021Z,73.45
2022-12-22T18:29:31.029Z,73.54
2022-12-22T18:32:00.737Z,73.41
2022-12-22T18:34:30.405Z,73.45
2022-12-22T18:37:00.156Z,73.61
2022-12-22T18:39:29.786Z,73.60
2022-12-22T18:41:59.363Z,73.60
2022-12-22T18:44:28.868Z,73.67
2022-12-22T18:46:58.391Z,73.53
2022-12-22T18:49:28.058Z,73.55
2022-12-22T18:51:57.599Z,73.59
2022-12-22T18:54:33.350Z,73.58
2022-12-22T18:57:03.008Z,73.57
2022-12-22T18:59:33.211Z,73.48
2022-12-22T19:02:04.367Z,73.52
2022-12-22T19:04:34.135Z,73.53
2022-12-22T19:07:03.747Z,73.44
2022-12-22T19:09:33.352Z,73.52
2022-12-22T19:12:02.871Z,73.38
2022-12-22T19:14:32.773Z,73.48
2022-12-22T19:17:02.382Z,73.43
2022-12-22T19:19:32.005Z,73.65
2022-12-22T19:22:01.604Z,73.61
2022-12-22T19:24:31.074Z,73.28
2022-12-22T19:27:00.720Z,73.19
2022-12-22T19:29:30.270Z,72.92
2022-12-22T19:32:00.148Z,73.06
2022-12-22T19:34:29.865Z,73.16
2022-12-22T19:36:59.460Z,73.29
2022-12-22T19:39:29.097Z,73.31
2022-12-22T19:41:58.581Z,73.16
2022-12-22T19:44:29.736Z,73.17
2022-12-22T19:47:00.968Z,73.15
2022-12-22T19:49:30.461Z,73.11
2022-12-22T19:52:00.171Z,73.07
2022-12-22T19:54:32.530Z,73.22
2022-12-22T19:57:02.377Z,73.18
2022-12-22T19:59:38.752Z,73.07
2022-12-22T20:02:22.709Z,73.00
2022-12-22T20:04:52.711Z,72.76
2022-12-22T20:07:24.116Z,72.69
2022-12-22T20:09:53.672Z,72.63
2022-12-22T20:12:26.372Z,72.74
2022-12-22T20:14:56.127Z,72.80
2022-12-22T20:17:25.673Z,72.81
2022-12-22T20:19:55.153Z,72.84
2022-12-22T20:22:25.024Z,72.78
2022-12-22T20:24:54.829Z,72.82
2022-12-22T20:27:26.092Z,72.76
2022-12-22T20:29:55.657Z,72.85
2022-12-22T20:32:28.075Z,72.70
2022-12-22T20:34:57.996Z,72.59
2022-12-22T20:37:29.657Z,72.59
2022-12-22T20:39:59.296Z,72.55
2022-12-22T20:42:30.212Z,72.48
2022-12-22T20:45:03.857Z,72.45
2022-12-22T20:47:34.719Z,72.57
2022-12-22T20:50:04.832Z,72.53
2022-12-22T20:52:34.432Z,72.59
2022-12-22T20:55:04.147Z,72.47
2022-12-22T20:57:34.058Z,72.57
2022-12-22T21:00:03.582Z,72.57
2022-12-22T21:02:33.342Z,72.58
2022-12-22T21:05:03.205Z,72.70
2022-12-22T21:07:35.790Z,72.57
2022-12-22T21:10:12.818Z,72.42
2022-12-22T21:12:48.811Z,72.39
2022-12-22T21:15:22.053Z,72.43
2022-12-22T21:17:58.840Z,72.46
2022-12-22T21:20:33.113Z,72.53
2022-12-22T21:23:02.731Z,72.43
2022-12-22T21:25:32.224Z,72.31
2022-12-22T21:28:04.497Z,72.30
2022-12-22T21:30:37.966Z,72.40
2022-12-22T21:33:10.036Z,72.43
2022-12-22T21:35:40.463Z,72.56
2022-12-22T21:38:16.456Z,72.43
2022-12-22T21:40:50.395Z,72.51
2022-12-22T21:43:27.645Z,72.56
2022-12-22T21:46:08.123Z,72.36
2022-12-22T21:48:40.893Z,72.50
2022-12-22T21:51:13.258Z,72.51
2022-12-22T21:53:42.697Z,72.56
2022-12-22T21:56:18.013Z,72.79
2022-12-22T21:58:47.930Z,72.76
2022-12-22T22:01:17.653Z,72.73
2022-12-22T22:03:47.412Z,72.87
2022-12-22T22:06:17.066Z,72.90
2022-12-22T22:08:46.554Z,72.90
2022-12-22T22:11:19.005Z,72.91
2022-12-22T22:13:48.863Z,72.99
2022-12-22T22:16:19.176Z,73.11
2022-12-22T22:18:49.155Z,73.29
2022-12-22T22:21:18.672Z,73.19
2022-12-22T22:23:48.282Z,73.18
2022-12-22T22:26:17.929Z,73.14
2022-12-22T22:28:47.443Z,73.33
2022-12-22T22:31:17.063Z,73.38
2022-12-22T22:33:49.738Z,73.48
2022-12-22T22:36:19.550Z,73.40
2022-12-22T22:38:52.426Z,73.42
2022-12-22T22:41:21.940Z,73.55
2022-12-22T22:43:54.923Z,73.63
2022-12-22T22:46:24.479Z,73.67
2022-12-22T22:48:54.142Z,73.87
2022-12-22T22:51:23.651Z,73.91
2022-12-22T22:53:53.256Z,74.06
2022-12-22T22:56:22.969Z,73.99
2022-12-22T22:58:52.667Z,73.93
2022-12-22T23:01:22.285Z,74.03
2022-12-22T23:03:51.899Z,74.09
2022-12-22T23:06:21.605Z,74.09
2022-12-22T23:08:51.216Z,74.05
2022-12-22T23:11:20.722Z,74.27
2022-12-22T23:13:50.336Z,74.21
2022-12-22T23:16:21.650Z,74.45
2022-12-22T23:18:52.618Z,74.42
2022-12-22T23:21:22.742Z,74.26
2022-12-22T23:23:54.911Z,74.38
2022-12-22T23:26:24.626Z,74.47
2022-12-22T23:28:59.273Z,74.39
2022-12-22T23:31:32.889Z,74.34
2022-12-22T23:34:02.589Z,74.30
2022-12-22T23:36:32.514Z,74.45
2022-12-22T23:39:02.125Z,74.52
2022-12-22T23:41:31.791Z,74.70
2022-12-22T23:44:01.415Z,74.64
2022-12-22T23:46:30.951Z,74.39
2022-12-22T23:49:00.667Z,74.46
2022-12-22T23:51:30.635Z,74.50
2022-12-22T23:54:01.612Z,74.68
2022-12-22T23:56:32.440Z,74.81
2022-12-22T23:59:02.171Z,74.68
